Time;durP1;ratioP1;P1;durP2;ratioP2;P2;SDS_P1;SDS_P2;PMS_P1;PMS_P2;Temp;Humidity;BMP_temperature;BMP_pressure;BME280_temperature;BME280_humidity;BME280_pressure;Samples;Min_cycle;Max_cycle;Signal;HPM_P1;HPM_P2
2021/03/02 06:57:50;;;;;;;7.75;5.68;;;;;;;;;;10539793;28;20372;-82
2021/03/02 07:02:51;;;;;;;9.63;6.03;;;;;;;;;;10519784;28;20078;-86
2021/03/02 07:07:55;;;;;;;;;;;;;;;;;;10519482;28;20020;-86
2021/03/02 07:12:56;;;;;;;11.00;9.90;;;;;;;;;;10518430;28;20037;-88
2021/03/02 07:17:57;;;;;;;7.43;6.32;;;;;;;;;;10514625;28;20082;-86
2021/03/02 07:23:00;;;;;;;11.52;9.25;;;;;;;;;;10474035;28;20021;-86
2021/03/02 07:28:02;;;;;;;7.50;6.43;;;;;;;;;;10474040;28;20036;-87
2021/03/02 07:33:03;;;;;;;8.07;7.28;;;;;;;;;;10474541;28;20071;-87
2021/03/02 07:38:20;;;;;;;6.07;5.45;;;;;;;;;;10476633;28;20027;-87
2021/03/02 07:43:27;;;;;;;6.35;5.75;;;;;;;;;;10473324;28;20037;-86
2021/03/02 07:48:31;;;;;;;8.00;5.43;;;;;;;;;;10474750;28;20037;-84
2021/03/02 07:53:33;;;;;;;6.93;6.22;;;;;;;;;;10476922;28;20082;-84
2021/03/02 07:58:34;;;;;;;6.10;5.22;;;;;;;;;;10476297;28;20021;-84
2021/03/02 08:03:38;;;;;;;3.88;3.33;;;;;;;;;;10474522;28;20475;-83
2021/03/02 08:08:39;;;;;;;6.40;5.57;;;;;;;;;;10454026;28;20021;-83
2021/03/02 08:13:41;;;;;;;6.90;5.72;;;;;;;;;;10451841;28;20526;-84
2021/03/02 08:18:45;;;;;;;8.45;6.22;;;;;;;;;;10456775;28;20100;-82
2021/03/02 08:23:46;;;;;;;10.57;7.20;;;;;;;;;;10468384;28;20029;-83
2021/03/02 08:29:07;;;;;;;7.07;6.38;;;;;;;;;;10450167;28;20028;-82
2021/03/02 08:34:09;;;;;;;6.82;5.93;;;;;;;;;;10450698;28;20060;-83
2021/03/02 08:39:10;;;;;;;7.20;6.30;;;;;;;;;;10453272;28;20185;-84
2021/03/02 08:44:19;;;;;;;6.05;5.20;;;;;;;;;;10451212;28;20021;-85
2021/03/02 08:49:20;;;;;;;6.70;5.47;;;;;;;;;;10450497;28;20056;-83
2021/03/02 08:54:21;;;;;;;7.90;5.72;;;;;;;;;;10451710;28;20041;-83
2021/03/02 08:59:28;;;;;;;6.22;5.63;;;;;;;;;;10469274;28;20079;-83
2021/03/02 09:04:33;;;;;;;8.50;5.65;;;;;;;;;;10450064;28;20383;-83
2021/03/02 09:09:34;;;;;;;6.00;5.40;;;;;;;;;;10455808;28;20017;-83
2021/03/02 09:14:36;;;;;;;7.20;6.22;;;;;;;;;;10452421;28;20442;-82
2021/03/02 09:19:41;;;;;;;7.10;5.13;;;;;;;;;;10448520;28;20115;-84
2021/03/02 09:24:54;;;;;;;6.72;4.75;;;;;;;;;;10451521;28;20025;-83
2021/03/02 09:29:56;;;;;;;7.03;4.95;;;;;;;;;;10434479;28;20032;-83
2021/03/02 09:35:08;;;;;;;8.20;6.93;;;;;;;;;;10449007;28;20029;-84
2021/03/02 09:40:11;;;;;;;8.15;7.35;;;;;;;;;;10448672;28;20033;-83
2021/03/02 09:45:16;;;;;;;7.72;6.30;;;;;;;;;;10446723;28;20031;-83
2021/03/02 09:50:18;;;;;;;7.88;5.97;;;;;;;;;;10464210;28;20029;-85
2021/03/02 09:55:19;;;;;;;6.18;5.15;;;;;;;;;;10445520;28;20037;-84
2021/03/02 10:00:25;;;;;;;6.80;6.10;;;;;;;;;;10444981;28;20028;-84
2021/03/02 10:05:43;;;;;;;7.07;4.72;;;;;;;;;;10448111;28;20021;-83
2021/03/02 10:10:44;;;;;;;6.03;5.28;;;;;;;;;;10452844;28;20020;-83
2021/03/02 10:15:45;;;;;;;5.53;4.82;;;;;;;;;;10446909;28;20029;-83
2021/03/02 10:21:06;;;;;;;7.78;6.93;;;;;;;;;;10445465;28;20112;-85
2021/03/02 10:26:07;;;;;;;5.82;5.20;;;;;;;;;;10445107;28;20116;-84
2021/03/02 10:31:22;;;;;;;9.00;6.72;;;;;;;;;;10445899;28;20025;-85
2021/03/02 10:36:32;;;;;;;7.70;5.03;;;;;;;;;;10446527;28;20029;-84
2021/03/02 10:41:33;;;;;;;8.90;7.15;;;;;;;;;;10445978;28;20082;-85
2021/03/02 10:46:35;;;;;;;7.95;5.57;;;;;;;;;;10444262;28;20144;-85
2021/03/02 10:51:36;;;;;;;7.45;6.00;;;;;;;;;;10463901;28;20204;-84
2021/03/02 10:56:37;;;;;;;9.07;8.02;;;;;;;;;;10445357;28;20061;-84
2021/03/02 11:01:38;;;;;;;6.50;5.80;;;;;;;;;;10446493;28;20115;-84
2021/03/02 11:06:39;;;;;;;6.25;5.18;;;;;;;;;;10446072;28;20055;-84
2021/03/02 11:12:07;;;;;;;7.50;6.00;;;;;;;;;;10458524;22;20134;-87
2021/03/02 11:17:31;;;;;;;7.30;6.60;;;;;;;;;;10443485;28;20056;-87
2021/03/02 11:23:28;;;;;;;5.78;4.97;;;;;;;;;;10392666;28;20361;-87
2021/03/02 11:28:58;;;;;;;5.80;5.00;;;;;;;;;;10441136;28;20065;-88
2021/03/02 11:34:45;;;;;;;6.43;5.32;;;;;;;;;;10439057;28;20056;-85
